Airfield :
LOGIN :

Register | Disclaimer

   EN    FR    IT 

 










Legend :    VFR   Marginal VFR   IFR   Intensive IFR   Very Intensive IFR
Visi :
Ceiling :
>= 8 km
>= 3000ft
5 to 8 km
1000 to 3000 ft
1500m to 5 km
500 to 1000 ft
800 to 1500m
200 to 500 ft
< 800m
< 200 ft
Symbols :   Thunderstorms  Fog  Heavy snow  Heavy precipitations  Wind > 20 kt
SIGMETs :     Misc.  Thunderstorms  Icing  Turbulence  Mountain Waves  Volcanic Ashes






- Airport Elevation : 70 ft
- IATA code : WBG


ETNS - Schleswig

CURRENT METAR :
  • 040520Z 23007KT 9999 FEW025 13/11 Q1017 BLU+BLU+

EXPIRED METARs :
  • 040320Z /////KT 9999 SCT020 SCT050 ///// Q//// BLU+

TAF TAF ETNS
Valid from the 04 at 05:00 until the 04 at 14:00 UTC


040418Z 0405/0414 24008KT 9999 NSW SCT020
TEMPO 0407/0411 27012G22KT 5000 -SHRA BKN015TCU
BECMG 0411/0413 25015G25KT 9999 NSW FEW030 BY ETGL



MET'MAP, your aeronautical weather chart ! - Copyright ORBIFLY December 2007 - Disclaimer

ORBIFLY MET'MAP TEAM :

Programming & Development : Alexandra Zaïnal
Original concept : Baudouin d'Aumeries
Technical & hardware support : Manuel Goepfert
Assistance : Marc-Olivier Méhu




SOURCES & CREDITS :

   NOAA